createdAt,value
2023-05-10T00:00:51.139Z,101302.69
2023-05-10T00:03:20.308Z,101297.31
2023-05-10T00:05:48.470Z,101302.00
2023-05-10T00:08:17.033Z,101312.75
2023-05-10T00:10:45.060Z,101296.84
2023-05-10T00:13:13.482Z,101304.97
2023-05-10T00:15:41.387Z,101294.50
2023-05-10T00:18:09.646Z,101294.59
2023-05-10T00:20:37.959Z,101301.69
2023-05-10T00:23:06.157Z,101296.44
2023-05-10T00:25:34.051Z,101303.97
2023-05-10T00:28:03.434Z,101291.50
2023-05-10T00:30:31.567Z,101299.00
2023-05-10T00:33:02.353Z,101294.66
2023-05-10T00:35:30.715Z,101296.47
2023-05-10T00:37:59.151Z,101300.13
2023-05-10T00:40:27.554Z,101290.53
2023-05-10T00:42:55.809Z,101292.41
2023-05-10T00:45:24.709Z,101290.00
2023-05-10T00:47:56.428Z,101286.47
2023-05-10T00:50:25.124Z,101292.00
2023-05-10T00:52:53.567Z,101289.41
2023-05-10T00:55:22.256Z,101291.06
2023-05-10T00:57:50.579Z,101294.69
2023-05-10T01:00:19.730Z,101295.53
2023-05-10T01:02:48.743Z,101288.56
2023-05-10T01:05:17.433Z,101291.25
2023-05-10T01:07:45.692Z,101287.69
2023-05-10T01:10:14.500Z,101283.94
2023-05-10T01:12:45.117Z,101293.75
2023-05-10T01:15:14.659Z,101290.28
2023-05-10T01:17:44.428Z,101286.84
2023-05-10T01:20:14.014Z,101286.91
2023-05-10T01:23:00.155Z,101286.84
2023-05-10T01:25:50.199Z,101291.25
2023-05-10T01:28:39.833Z,101296.78
2023-05-10T01:31:35.259Z,101289.69
2023-05-10T01:34:27.276Z,101286.50
2023-05-10T01:37:17.673Z,101282.78
2023-05-10T01:39:58.443Z,101284.00
2023-05-10T01:42:28.810Z,101283.81
2023-05-10T01:45:16.542Z,101279.72
2023-05-10T01:48:07.029Z,101275.75
2023-05-10T01:50:37.361Z,101275.56
2023-05-10T01:53:08.909Z,101270.66
2023-05-10T01:55:48.577Z,101276.97
2023-05-10T01:58:26.987Z,101272.38
2023-05-10T02:01:02.308Z,101271.44
2023-05-10T02:03:34.817Z,101263.56
2023-05-10T02:06:03.582Z,101270.59
2023-05-10T02:08:32.363Z,101280.34
2023-05-10T02:11:00.772Z,101273.84
2023-05-10T02:13:29.928Z,101271.06
2023-05-10T02:15:58.931Z,101269.06
2023-05-10T02:18:28.929Z,101268.22
2023-05-10T02:20:57.496Z,101268.78
2023-05-10T02:23:26.668Z,101273.91
2023-05-10T02:25:56.647Z,101269.03
2023-05-10T02:28:28.397Z,101266.19
2023-05-10T02:30:56.956Z,101273.16
2023-05-10T02:33:28.559Z,101271.28
2023-05-10T02:35:57.773Z,101263.78
2023-05-10T02:38:26.577Z,101260.81
2023-05-10T02:40:55.901Z,101270.16
2023-05-10T02:43:24.592Z,101270.38
2023-05-10T02:45:52.848Z,101266.25
2023-05-10T02:48:20.761Z,101265.59
2023-05-10T02:50:52.891Z,101274.91
2023-05-10T02:53:26.957Z,101277.91
2023-05-10T02:55:57.097Z,101278.88
2023-05-10T02:58:25.382Z,101279.25
2023-05-10T03:00:53.990Z,101285.75
2023-05-10T03:03:24.483Z,101278.34
2023-05-10T03:05:55.071Z,101285.09
2023-05-10T03:08:24.611Z,101283.03
2023-05-10T03:11:19.735Z,101283.31
2023-05-10T03:14:12.818Z,101281.28
2023-05-10T03:16:48.682Z,101281.56
2023-05-10T03:19:27.366Z,101279.41
2023-05-10T03:22:01.235Z,101274.69
2023-05-10T03:24:29.790Z,101283.59
2023-05-10T03:27:05.733Z,101297.81
2023-05-10T03:29:34.435Z,101288.41
2023-05-10T03:32:02.657Z,101278.47
2023-05-10T03:34:32.510Z,101292.53
2023-05-10T03:37:00.849Z,101285.19
2023-05-10T03:39:29.098Z,101286.00
2023-05-10T03:42:00.160Z,101282.81
2023-05-10T03:44:28.534Z,101279.31
2023-05-10T03:46:58.357Z,101278.47
2023-05-10T03:49:26.603Z,101282.72
2023-05-10T03:51:54.872Z,101277.88
2023-05-10T03:54:22.844Z,101269.47
2023-05-10T03:56:51.011Z,101277.03
2023-05-10T03:59:19.536Z,101279.84
2023-05-10T04:01:47.796Z,101283.81
2023-05-10T04:04:16.209Z,101286.78
2023-05-10T04:06:44.397Z,101285.00
2023-05-10T04:09:12.447Z,101280.84
2023-05-10T04:11:40.737Z,101284.44
2023-05-10T04:14:09.160Z,101285.66
2023-05-10T04:16:40.109Z,101292.44
2023-05-10T04:19:08.190Z,101289.06
2023-05-10T04:21:36.419Z,101295.25
2023-05-10T04:24:08.052Z,101296.38
2023-05-10T04:26:36.528Z,101288.34
2023-05-10T04:29:04.516Z,101294.38
2023-05-10T04:31:32.726Z,101286.19
2023-05-10T04:34:00.971Z,101284.94
2023-05-10T04:36:29.244Z,101294.31
2023-05-10T04:38:57.615Z,101280.44
2023-05-10T04:41:26.889Z,101281.41
2023-05-10T04:43:55.201Z,101287.91
2023-05-10T04:46:26.137Z,101281.75
2023-05-10T04:48:54.197Z,101291.91
2023-05-10T04:51:22.352Z,101279.97
2023-05-10T04:54:01.558Z,101279.06
2023-05-10T04:56:33.134Z,101291.03
2023-05-10T04:59:01.481Z,101281.53
2023-05-10T05:01:29.780Z,101284.09
2023-05-10T05:03:58.150Z,101274.94
2023-05-10T05:06:29.618Z,101282.59
2023-05-10T05:08:58.051Z,101290.28
2023-05-10T05:11:27.018Z,101280.16
2023-05-10T05:13:55.132Z,101277.41
2023-05-10T05:16:23.870Z,101287.31
2023-05-10T05:18:52.363Z,101281.41
2023-05-10T05:21:21.182Z,101280.06
2023-05-10T05:23:49.171Z,101281.09
2023-05-10T05:26:17.275Z,101284.44
2023-05-10T05:28:45.626Z,101285.16
2023-05-10T05:31:13.852Z,101293.22
2023-05-10T05:33:42.265Z,101285.38
2023-05-10T05:36:10.704Z,101286.41
2023-05-10T05:38:38.808Z,101292.19
2023-05-10T05:41:06.844Z,101288.31
2023-05-10T05:43:36.699Z,101283.44
2023-05-10T05:46:10.407Z,101270.00
2023-05-10T05:48:39.035Z,101276.88
2023-05-10T05:51:07.650Z,101279.22
2023-05-10T05:53:35.924Z,101283.84
2023-05-10T05:56:04.961Z,101281.53
2023-05-10T05:58:33.091Z,101285.97
2023-05-10T06:01:01.096Z,101278.53
2023-05-10T06:03:29.342Z,101282.22
2023-05-10T06:05:57.807Z,101289.03
2023-05-10T06:08:27.267Z,101274.75
2023-05-10T06:10:55.422Z,101282.44
2023-05-10T06:13:23.984Z,101282.59
2023-05-10T06:15:52.448Z,101278.28
2023-05-10T06:18:23.845Z,101278.66
2023-05-10T06:20:52.965Z,101271.13
2023-05-10T06:23:21.264Z,101270.22
2023-05-10T06:25:53.470Z,101266.69
2023-05-10T06:28:21.937Z,101262.59
2023-05-10T06:30:50.358Z,101269.63
2023-05-10T06:33:18.578Z,101269.59
2023-05-10T06:35:46.790Z,101266.50
2023-05-10T06:38:15.067Z,101272.47
2023-05-10T06:40:44.160Z,101265.28
2023-05-10T06:43:12.424Z,101268.53
2023-05-10T06:45:42.758Z,101271.66
2023-05-10T06:48:10.814Z,101262.59
2023-05-10T06:50:40.195Z,101266.56
2023-05-10T06:53:09.187Z,101263.69
2023-05-10T06:55:38.311Z,101263.84
2023-05-10T06:58:07.646Z,101262.69
2023-05-10T07:00:36.158Z,101256.03
2023-05-10T07:03:04.625Z,101258.88
2023-05-10T07:05:33.306Z,101267.75
2023-05-10T07:08:01.706Z,101267.00
2023-05-10T07:10:29.728Z,101250.44
2023-05-10T07:12:57.821Z,101248.00
2023-05-10T07:15:25.995Z,101269.91
2023-05-10T07:17:54.121Z,101260.28
2023-05-10T07:20:22.413Z,101263.59
2023-05-10T07:22:50.758Z,101257.06
2023-05-10T07:25:19.875Z,101256.59
2023-05-10T07:27:49.778Z,101255.97
2023-05-10T07:30:17.829Z,101250.75
2023-05-10T07:32:47.019Z,101246.56
2023-05-10T07:35:17.007Z,101242.81
2023-05-10T07:37:45.190Z,101239.84
2023-05-10T07:40:13.628Z,101251.69
2023-05-10T07:42:49.353Z,101247.41
2023-05-10T07:45:18.051Z,101242.00
2023-05-10T07:47:46.093Z,101249.00
2023-05-10T07:50:14.573Z,101237.56
2023-05-10T07:52:43.390Z,101248.25
2023-05-10T07:55:12.157Z,101247.72
2023-05-10T07:57:40.921Z,101234.72
2023-05-10T08:00:09.279Z,101234.69
2023-05-10T08:02:37.916Z,101231.84
2023-05-10T08:05:08.397Z,101223.41
2023-05-10T08:07:37.682Z,101232.09
2023-05-10T08:10:06.910Z,101228.25
2023-05-10T08:12:35.171Z,101224.53
2023-05-10T08:15:04.111Z,101234.56
2023-05-10T08:17:33.952Z,101243.41
2023-05-10T08:20:02.804Z,101229.81
2023-05-10T08:22:32.133Z,101243.41
2023-05-10T08:25:00.219Z,101242.47
2023-05-10T08:27:28.643Z,101232.06
2023-05-10T08:29:59.708Z,101236.09
2023-05-10T08:32:28.108Z,101226.78
2023-05-10T08:34:58.231Z,101231.34
2023-05-10T08:37:27.412Z,101227.66
2023-05-10T08:39:55.531Z,101227.38
2023-05-10T08:42:24.479Z,101229.53
2023-05-10T08:44:53.484Z,101221.38
2023-05-10T08:47:21.953Z,101220.50
2023-05-10T08:49:52.435Z,101218.31
2023-05-10T08:52:21.629Z,101223.75
2023-05-10T08:54:50.322Z,101229.94
2023-05-10T08:57:18.732Z,101226.16
2023-05-10T08:59:48.086Z,101226.72
2023-05-10T09:02:18.581Z,101218.66
2023-05-10T09:04:47.134Z,101218.28
2023-05-10T09:07:15.737Z,101220.06
2023-05-10T09:09:45.000Z,101212.19
2023-05-10T09:12:14.009Z,101217.72
2023-05-10T09:14:46.393Z,101203.16
2023-05-10T09:17:14.786Z,101204.16
2023-05-10T09:19:42.903Z,101199.91
2023-05-10T09:22:11.774Z,101205.06
2023-05-10T09:24:44.067Z,101202.63
2023-05-10T09:27:12.842Z,101189.44
2023-05-10T09:29:43.860Z,101192.31
2023-05-10T09:32:13.774Z,101198.75
2023-05-10T09:34:42.613Z,101191.19
2023-05-10T09:37:10.989Z,101183.59
2023-05-10T09:39:39.420Z,101192.97
2023-05-10T09:42:10.068Z,101184.59
2023-05-10T09:44:39.790Z,101184.31
2023-05-10T09:47:08.656Z,101191.44
2023-05-10T09:49:37.137Z,101187.72
2023-05-10T09:52:08.950Z,101178.13
2023-05-10T09:54:38.686Z,101184.50
2023-05-10T09:57:07.998Z,101177.72
2023-05-10T09:59:36.818Z,101171.19
2023-05-10T10:02:05.218Z,101186.88
2023-05-10T10:04:34.085Z,101189.38
2023-05-10T10:07:05.003Z,101196.03
2023-05-10T10:09:34.404Z,101199.63
2023-05-10T10:12:06.180Z,101182.00
2023-05-10T10:14:35.881Z,101203.06
2023-05-10T10:17:08.335Z,101194.59
2023-05-10T10:19:38.178Z,101186.19
2023-05-10T10:22:07.574Z,101177.44
2023-05-10T10:24:35.705Z,101176.16
2023-05-10T10:27:31.657Z,101189.16
2023-05-10T10:30:23.991Z,101198.63
2023-05-10T10:33:10.436Z,101184.34
2023-05-10T10:35:48.888Z,101196.97
2023-05-10T10:38:19.588Z,101193.59
2023-05-10T10:40:49.498Z,101182.16
2023-05-10T10:43:28.411Z,101185.28
2023-05-10T10:46:21.814Z,101183.59
2023-05-10T10:48:52.900Z,101168.72
2023-05-10T10:51:21.329Z,101170.53
2023-05-10T10:53:50.439Z,101165.66
2023-05-10T10:56:24.953Z,101154.19
2023-05-10T10:58:54.952Z,101159.09
2023-05-10T11:01:23.505Z,101152.66
2023-05-10T11:04:00.798Z,101157.38
2023-05-10T11:06:39.675Z,101152.25
2023-05-10T11:09:12.867Z,101143.56
2023-05-10T11:11:53.445Z,101148.28
2023-05-10T11:14:23.891Z,101156.72
2023-05-10T11:16:52.296Z,101143.47
2023-05-10T11:19:23.725Z,101137.84
2023-05-10T11:22:14.456Z,101150.06
2023-05-10T11:24:57.946Z,101135.59
2023-05-10T11:27:26.458Z,101150.31
2023-05-10T11:29:55.010Z,101153.91
2023-05-10T11:32:23.888Z,101156.19
2023-05-10T11:34:53.334Z,101159.13
2023-05-10T11:37:21.824Z,101176.94
2023-05-10T11:39:49.919Z,101177.44
2023-05-10T11:42:18.534Z,101176.06
2023-05-10T11:44:47.769Z,101191.03
2023-05-10T11:47:16.120Z,101164.16
2023-05-10T11:49:48.038Z,101185.66
2023-05-10T11:52:16.292Z,101182.41
2023-05-10T11:54:54.574Z,101187.56
2023-05-10T11:57:28.054Z,101201.94
2023-05-10T11:59:57.630Z,101175.63
2023-05-10T12:02:26.545Z,101158.69
2023-05-10T12:04:56.567Z,101160.16
2023-05-10T12:07:24.840Z,101163.75
2023-05-10T12:10:09.673Z,101153.22
2023-05-10T12:12:46.142Z,101164.72
2023-05-10T12:15:20.920Z,101157.84
2023-05-10T12:17:49.897Z,101160.53
2023-05-10T12:20:30.311Z,101158.16
2023-05-10T12:23:00.789Z,101152.84
2023-05-10T12:25:36.971Z,101152.44
2023-05-10T12:30:55.137Z,101158.91
2023-05-10T12:33:23.750Z,101155.34
2023-05-10T12:35:54.027Z,101167.56
2023-05-10T12:38:40.392Z,101164.44
2023-05-10T12:41:10.291Z,101173.03
2023-05-10T12:43:40.098Z,101160.88
2023-05-10T12:46:17.474Z,101171.22
2023-05-10T12:48:47.488Z,101165.13
2023-05-10T12:51:18.733Z,101163.56
2023-05-10T12:53:49.751Z,101159.91
2023-05-10T12:56:20.252Z,101163.34
2023-05-10T12:58:49.329Z,101177.06
2023-05-10T13:01:17.960Z,101166.50
2023-05-10T13:03:46.158Z,101175.13
2023-05-10T13:06:15.299Z,101177.81
2023-05-10T13:08:43.617Z,101165.25
2023-05-10T13:11:11.944Z,101168.00
2023-05-10T13:13:39.970Z,101157.69
2023-05-10T13:16:08.786Z,101158.78
2023-05-10T13:18:37.823Z,101163.38
2023-05-10T13:21:06.785Z,101166.78
2023-05-10T13:24:01.709Z,101174.44
2023-05-10T13:26:30.266Z,101163.81
2023-05-10T13:28:58.287Z,101174.16
2023-05-10T13:31:26.511Z,101161.56
2023-05-10T13:33:54.853Z,101171.44
2023-05-10T13:36:24.103Z,101171.34
2023-05-10T13:38:52.061Z,101172.31
2023-05-10T13:41:20.334Z,101168.84
2023-05-10T13:43:50.282Z,101176.63
2023-05-10T13:46:18.720Z,101171.59
2023-05-10T13:48:47.728Z,101169.28
2023-05-10T13:51:16.297Z,101161.25
2023-05-10T13:53:44.656Z,101166.59
2023-05-10T13:56:12.851Z,101158.00
2023-05-10T13:58:41.530Z,101163.56
2023-05-10T14:01:09.731Z,101161.22
2023-05-10T14:03:38.357Z,101157.25
2023-05-10T14:06:06.379Z,101163.88
2023-05-10T14:08:36.769Z,101169.16
2023-05-10T14:11:05.151Z,101160.72
2023-05-10T14:13:33.215Z,101158.16
2023-05-10T14:16:01.947Z,101155.72
2023-05-10T14:18:30.570Z,101167.56
2023-05-10T14:20:58.979Z,101166.44
2023-05-10T14:23:27.791Z,101164.72
2023-05-10T14:25:56.737Z,101164.56
2023-05-10T14:28:26.092Z,101159.59
2023-05-10T14:30:54.356Z,101159.13
2023-05-10T14:33:22.368Z,101149.94
2023-05-10T14:35:50.936Z,101154.09
2023-05-10T14:38:19.236Z,101153.22
2023-05-10T14:40:47.628Z,101145.75
2023-05-10T14:43:15.607Z,101151.97
2023-05-10T14:45:44.505Z,101145.38
2023-05-10T14:48:16.601Z,101146.19
2023-05-10T14:50:45.981Z,101138.97
2023-05-10T14:53:14.360Z,101142.72
2023-05-10T14:55:42.393Z,101142.50
2023-05-10T14:58:10.391Z,101141.81
2023-05-10T15:00:39.172Z,101137.81
2023-05-10T15:03:08.058Z,101139.97
2023-05-10T15:05:39.272Z,101139.53
2023-05-10T15:08:07.363Z,101140.25
2023-05-10T15:10:36.596Z,101142.88
2023-05-10T15:13:05.687Z,101139.34
2023-05-10T15:15:33.757Z,101145.03
2023-05-10T15:18:02.075Z,101140.09
2023-05-10T15:20:30.453Z,101155.75
2023-05-10T15:22:58.788Z,101148.72
2023-05-10T15:25:27.260Z,101142.72
2023-05-10T15:27:55.728Z,101152.69
2023-05-10T15:30:23.904Z,101154.78
2023-05-10T15:32:52.062Z,101147.19
2023-05-10T15:35:20.969Z,101151.94
2023-05-10T15:37:50.876Z,101153.19
2023-05-10T15:40:18.873Z,101149.00
2023-05-10T15:42:46.812Z,101149.38
2023-05-10T15:45:14.878Z,101144.38
2023-05-10T15:47:43.268Z,101156.28
2023-05-10T15:50:12.546Z,101150.78
2023-05-10T15:52:40.744Z,101156.84
2023-05-10T15:55:13.400Z,101148.84
2023-05-10T15:57:42.818Z,101144.03
2023-05-10T16:00:14.179Z,101152.16
2023-05-10T16:02:42.939Z,101148.22
2023-05-10T16:05:11.349Z,101158.31
2023-05-10T16:07:42.376Z,101156.72
2023-05-10T16:10:11.693Z,101157.22
2023-05-10T16:12:40.324Z,101164.84
2023-05-10T16:15:09.716Z,101163.38
2023-05-10T16:17:38.339Z,101192.75
2023-05-10T16:20:07.303Z,101169.50
2023-05-10T16:22:36.156Z,101166.06
2023-05-10T16:25:04.646Z,101164.69
2023-05-10T16:27:33.889Z,101169.63
2023-05-10T16:30:02.267Z,101163.75
2023-05-10T16:32:31.049Z,101167.06
2023-05-10T16:35:00.550Z,101167.41
2023-05-10T16:37:29.164Z,101162.84
2023-05-10T16:39:57.836Z,101168.25
2023-05-10T16:42:26.504Z,101166.03
2023-05-10T16:44:55.803Z,101175.59
2023-05-10T16:47:27.037Z,101178.19
2023-05-10T16:49:55.770Z,101171.16
2023-05-10T16:52:24.303Z,101170.88
2023-05-10T16:54:52.974Z,101170.53
2023-05-10T16:57:21.260Z,101170.25
2023-05-10T16:59:58.476Z,101177.09
2023-05-10T17:02:27.684Z,101168.72
2023-05-10T17:04:59.182Z,101176.50
2023-05-10T17:07:29.715Z,101179.53
2023-05-10T17:09:59.429Z,101172.66
2023-05-10T17:12:27.663Z,101179.47
2023-05-10T17:14:56.075Z,101177.13
2023-05-10T17:17:24.389Z,101173.16
2023-05-10T17:19:52.478Z,101167.59
2023-05-10T17:22:21.160Z,101185.09
2023-05-10T17:24:49.263Z,101178.44
2023-05-10T17:27:20.071Z,101180.59
2023-05-10T17:29:48.291Z,101175.56
2023-05-10T17:32:19.322Z,101178.34
2023-05-10T17:34:52.188Z,101174.19
2023-05-10T17:37:20.611Z,101180.22
2023-05-10T17:39:48.902Z,101185.94
2023-05-10T17:42:19.341Z,101181.09
2023-05-10T17:44:47.469Z,101181.56
2023-05-10T17:47:15.400Z,101190.19
2023-05-10T17:49:44.125Z,101196.88
2023-05-10T17:52:12.558Z,101191.06
2023-05-10T17:54:40.714Z,101193.34
2023-05-10T17:57:08.759Z,101197.41
2023-05-10T17:59:37.156Z,101197.94
2023-05-10T18:02:05.390Z,101200.06
2023-05-10T18:04:33.782Z,101201.69
2023-05-10T18:07:06.644Z,101202.09
2023-05-10T18:09:34.975Z,101197.03
2023-05-10T18:12:04.064Z,101204.56
2023-05-10T18:14:40.452Z,101200.56
2023-05-10T18:17:10.348Z,101203.69
2023-05-10T18:19:39.050Z,101204.94
2023-05-10T18:22:10.474Z,101207.88
2023-05-10T18:24:40.177Z,101212.47
2023-05-10T18:27:09.570Z,101212.91
2023-05-10T18:29:37.851Z,101213.28
2023-05-10T18:32:07.172Z,101210.91
2023-05-10T18:34:35.856Z,101203.81
2023-05-10T18:37:08.031Z,101213.72
2023-05-10T18:39:37.942Z,101214.66
2023-05-10T18:42:06.302Z,101213.91
2023-05-10T18:44:35.273Z,101205.16
2023-05-10T18:47:03.860Z,101213.44
2023-05-10T18:49:32.465Z,101214.41
2023-05-10T18:52:00.496Z,101196.72
2023-05-10T18:54:29.419Z,101205.66
2023-05-10T18:56:59.015Z,101207.59
2023-05-10T18:59:31.460Z,101201.38
2023-05-10T19:01:59.483Z,101204.13
2023-05-10T19:04:27.719Z,101203.50
2023-05-10T19:06:56.383Z,101200.69
2023-05-10T19:09:28.214Z,101204.25
2023-05-10T19:11:56.395Z,101203.59
2023-05-10T19:14:25.727Z,101209.81
2023-05-10T19:16:54.784Z,101194.00
2023-05-10T19:19:23.281Z,101203.88
2023-05-10T19:21:51.508Z,101199.47
2023-05-10T19:24:23.816Z,101195.06
2023-05-10T19:26:52.676Z,101201.38
2023-05-10T19:29:23.670Z,101204.94
2023-05-10T19:31:52.905Z,101201.31
2023-05-10T19:34:21.267Z,101212.81
2023-05-10T19:36:49.368Z,101203.50
2023-05-10T19:39:17.906Z,101205.22
2023-05-10T19:41:48.128Z,101205.13
2023-05-10T19:44:16.429Z,101206.09
2023-05-10T19:46:44.729Z,101203.69
2023-05-10T19:49:12.877Z,101206.47
2023-05-10T19:51:41.608Z,101205.72
2023-05-10T19:54:10.454Z,101199.38
2023-05-10T19:56:38.665Z,101213.47
2023-05-10T19:59:08.276Z,101213.38
2023-05-10T20:01:36.781Z,101206.69
2023-05-10T20:04:05.475Z,101204.09
2023-05-10T20:06:34.099Z,101197.75
2023-05-10T20:09:02.594Z,101199.66
2023-05-10T20:11:30.587Z,101200.28
2023-05-10T20:13:59.167Z,101203.25
2023-05-10T20:16:27.578Z,101201.72
2023-05-10T20:18:56.282Z,101200.94
2023-05-10T20:21:26.826Z,101206.75
2023-05-10T20:23:57.151Z,101204.16
2023-05-10T20:26:25.290Z,101197.91
2023-05-10T20:28:53.752Z,101203.78
2023-05-10T20:31:21.935Z,101200.59
2023-05-10T20:33:49.971Z,101202.91
2023-05-10T20:36:18.083Z,101206.69
2023-05-10T20:38:46.385Z,101208.09
2023-05-10T20:41:14.702Z,101200.78
2023-05-10T20:43:43.151Z,101204.63
2023-05-10T20:46:11.578Z,101206.03
2023-05-10T20:48:39.748Z,101204.03
2023-05-10T20:51:07.952Z,101209.03
2023-05-10T20:53:36.734Z,101203.84
2023-05-10T20:56:05.100Z,101193.00
2023-05-10T20:58:34.098Z,101197.50
2023-05-10T21:01:03.313Z,101198.66
2023-05-10T21:03:31.583Z,101196.19
2023-05-10T21:05:59.935Z,101188.00
2023-05-10T21:08:29.082Z,101197.50
2023-05-10T21:10:57.824Z,101202.97
2023-05-10T21:13:30.323Z,101191.38
2023-05-10T21:15:58.926Z,101196.25
2023-05-10T21:18:28.279Z,101201.72
2023-05-10T21:20:56.606Z,101191.72
2023-05-10T21:23:27.352Z,101178.22
2023-05-10T21:25:56.212Z,101183.50
2023-05-10T21:28:25.023Z,101188.88
2023-05-10T21:30:53.322Z,101190.00
2023-05-10T21:33:21.501Z,101182.91
2023-05-10T21:35:49.735Z,101197.31
2023-05-10T21:38:17.718Z,101191.94
2023-05-10T21:40:45.642Z,101187.16
2023-05-10T21:43:13.972Z,101193.28
2023-05-10T21:45:42.473Z,101189.84
2023-05-10T21:48:10.550Z,101192.53
2023-05-10T21:50:38.532Z,101195.38
2023-05-10T21:53:06.731Z,101196.53
2023-05-10T21:55:37.538Z,101196.06
2023-05-10T21:58:06.629Z,101197.22
2023-05-10T22:00:36.278Z,101201.44
2023-05-10T22:03:06.947Z,101196.75
2023-05-10T22:05:35.215Z,101198.38
2023-05-10T22:08:03.624Z,101197.72
2023-05-10T22:10:32.134Z,101194.44
2023-05-10T22:13:02.583Z,101202.13
2023-05-10T22:15:36.325Z,101204.50
2023-05-10T22:18:05.775Z,101199.50
2023-05-10T22:20:34.159Z,101202.75
2023-05-10T22:23:02.429Z,101199.28
2023-05-10T22:25:31.074Z,101196.41
2023-05-10T22:27:59.522Z,101190.97
2023-05-10T22:30:32.799Z,101196.34
2023-05-10T22:33:01.150Z,101192.69
2023-05-10T22:35:29.327Z,101191.72
2023-05-10T22:37:57.870Z,101190.97
2023-05-10T22:40:25.775Z,101186.81
2023-05-10T22:42:56.953Z,101186.25
2023-05-10T22:45:24.848Z,101189.91
2023-05-10T22:47:53.358Z,101194.47
2023-05-10T22:50:22.315Z,101195.53
2023-05-10T22:52:50.723Z,101189.66
2023-05-10T22:55:18.861Z,101191.50
2023-05-10T22:57:47.245Z,101188.97
2023-05-10T23:00:16.265Z,101190.13
2023-05-10T23:02:44.896Z,101184.53
2023-05-10T23:05:19.956Z,101187.75
2023-05-10T23:07:53.790Z,101191.84
2023-05-10T23:10:22.021Z,101186.94
2023-05-10T23:12:50.280Z,101191.53
2023-05-10T23:15:18.268Z,101196.03
2023-05-10T23:17:46.757Z,101185.56
2023-05-10T23:20:15.001Z,101187.56
2023-05-10T23:22:43.723Z,101197.59
2023-05-10T23:25:14.818Z,101193.28
2023-05-10T23:27:43.171Z,101198.44
2023-05-10T23:30:11.784Z,101193.69
2023-05-10T23:32:39.809Z,101199.47
2023-05-10T23:35:08.400Z,101207.88
2023-05-10T23:37:37.287Z,101200.41
2023-05-10T23:40:08.127Z,101210.00
2023-05-10T23:42:36.697Z,101190.53
2023-05-10T23:45:05.042Z,101199.38
2023-05-10T23:47:34.393Z,101208.03
2023-05-10T23:50:02.578Z,101203.91
2023-05-10T23:52:31.465Z,101195.22
2023-05-10T23:55:02.259Z,101203.22
2023-05-10T23:57:30.870Z,101194.84
2023-05-10T23:59:59.300Z,101206.59
